Time;durP1;ratioP1;P1;durP2;ratioP2;P2;SDS_P1;SDS_P2;PMS_P1;PMS_P2;Temp;Humidity;BMP_temperature;BMP_pressure;BME280_temperature;BME280_humidity;BME280_pressure;Samples;Min_cycle;Max_cycle;Signal;HPM_P1;HPM_P2
2021/08/31 00:00:16;;;;;;;3.50;3.27;;;;;22.30;101072.00;;;;2069816;28;20293;-56
2021/08/31 00:01:16;;;;;;;4.10;3.80;;;;;22.30;101069.00;;;;2069763;28;20206;-55
2021/08/31 00:02:17;;;;;;;4.10;3.80;;;;;22.30;101072.00;;;;2069700;28;21009;-55
2021/08/31 00:03:17;;;;;;;4.00;3.70;;;;;22.30;101069.00;;;;2075029;28;20214;-55
2021/08/31 00:04:17;;;;;;;4.07;3.77;;;;;22.30;101069.00;;;;2077684;28;20205;-55
2021/08/31 00:05:18;;;;;;;3.93;3.63;;;;;22.30;101074.00;;;;2075569;28;20240;-56
2021/08/31 00:06:19;;;;;;;3.23;3.03;;;;;22.30;101076.00;;;;2075993;28;20643;-55
2021/08/31 00:07:19;;;;;;;3.70;3.40;;;;;22.30;101074.00;;;;2076587;28;20219;-55
2021/08/31 00:08:23;;;;;;;3.97;3.67;;;;;22.30;101078.00;;;;2076417;28;20236;-55
2021/08/31 00:09:24;;;;;;;3.55;3.28;;;;;22.30;101073.00;;;;2075983;28;20585;-54
2021/08/31 00:10:24;;;;;;;3.70;3.40;;;;;22.30;101078.00;;;;2077110;28;20231;-54
2021/08/31 00:11:25;;;;;;;3.90;3.60;;;;;22.30;101080.00;;;;2077718;28;20221;-55
2021/08/31 00:12:25;;;;;;;3.87;3.57;;;;;22.30;101085.00;;;;2077568;28;20222;-55
2021/08/31 00:13:25;;;;;;;3.70;3.40;;;;;22.10;101076.00;;;;2077636;28;20218;-55
2021/08/31 00:14:26;;;;;;;4.00;3.70;;;;;22.30;101083.00;;;;2077758;28;20264;-55
2021/08/31 00:15:26;;;;;;;3.40;3.20;;;;;22.30;101082.00;;;;2077539;28;20221;-55
2021/08/31 00:16:26;;;;;;;3.80;3.60;;;;;22.30;101086.00;;;;2073762;28;20214;-55
2021/08/31 00:17:27;;;;;;;3.90;3.60;;;;;22.30;101088.00;;;;2073057;28;20218;-55
2021/08/31 00:18:27;;;;;;;3.70;3.50;;;;;22.30;101085.00;;;;2069483;28;20223;-55
2021/08/31 00:19:28;;;;;;;3.87;3.57;;;;;22.30;101089.00;;;;2067511;28;20321;-55
2021/08/31 00:20:28;;;;;;;4.33;4.00;;;;;22.30;101083.00;;;;2068807;28;20214;-54
2021/08/31 00:21:29;;;;;;;3.70;3.40;;;;;22.30;101083.00;;;;2069161;28;20579;-55
2021/08/31 00:22:29;;;;;;;3.90;3.60;;;;;22.30;101085.00;;;;2069349;28;20357;-55
2021/08/31 00:23:29;;;;;;;3.97;3.67;;;;;22.30;101085.00;;;;2069298;28;20210;-55
2021/08/31 00:24:30;;;;;;;3.83;3.53;;;;;22.30;101084.00;;;;2069463;28;20293;-55
2021/08/31 00:25:31;;;;;;;3.53;3.30;;;;;22.30;101086.00;;;;2069322;28;20297;-55
2021/08/31 00:26:31;;;;;;;3.47;3.28;;;;;22.30;101085.00;;;;2069122;28;20226;-55
2021/08/31 00:27:32;;;;;;;3.83;3.57;;;;;22.30;101085.00;;;;2069284;28;20578;-55
2021/08/31 00:28:32;;;;;;;3.70;3.40;;;;;22.30;101081.00;;;;2069323;28;20221;-55
2021/08/31 00:29:33;;;;;;;3.70;3.50;;;;;22.30;101089.00;;;;2070655;28;20214;-55
2021/08/31 00:30:33;;;;;;;3.73;3.43;;;;;22.30;101087.00;;;;2077302;28;20699;-55
2021/08/31 00:31:33;;;;;;;3.87;3.60;;;;;22.30;101087.00;;;;2077137;28;21456;-55
2021/08/31 00:32:34;;;;;;;4.13;3.83;;;;;22.30;101093.00;;;;2077526;28;20217;-55
2021/08/31 00:33:34;;;;;;;3.80;3.60;;;;;22.30;101093.00;;;;2069891;28;20222;-55
2021/08/31 00:34:34;;;;;;;3.90;3.60;;;;;22.30;101085.00;;;;2069378;28;20305;-55
2021/08/31 00:35:35;;;;;;;3.37;3.17;;;;;22.30;101079.00;;;;2069449;28;20214;-55
2021/08/31 00:36:35;;;;;;;3.83;3.53;;;;;22.30;101092.00;;;;2070358;28;20577;-54
2021/08/31 00:37:35;;;;;;;4.10;3.80;;;;;22.30;101080.00;;;;2075558;28;20297;-55
2021/08/31 00:38:36;;;;;;;3.73;3.43;;;;;22.30;101087.00;;;;2077563;28;20240;-55
2021/08/31 00:39:36;;;;;;;3.90;3.60;;;;;22.30;101090.00;;;;2073402;28;20217;-55
2021/08/31 00:40:37;;;;;;;4.00;3.70;;;;;22.30;101088.00;;;;2085027;28;20588;-55
2021/08/31 00:41:37;;;;;;;4.00;3.70;;;;;22.30;101094.00;;;;2078345;28;20217;-55
2021/08/31 00:42:37;;;;;;;3.83;3.60;;;;;22.30;101089.00;;;;2077166;28;20213;-55
2021/08/31 00:43:48;;;;;;;4.10;3.80;;;;;22.30;101095.00;;;;2077502;28;20222;-54
2021/08/31 00:44:48;;;;;;;3.90;3.60;;;;;22.30;101089.00;;;;2076875;28;20221;-55
2021/08/31 00:45:49;;;;;;;3.53;3.33;;;;;22.30;101093.00;;;;2077040;28;20268;-55
2021/08/31 00:46:51;;;;;;;3.70;3.50;;;;;22.30;101102.00;;;;2077204;28;20634;-55
2021/08/31 00:47:53;;;;;;;3.85;3.55;;;;;22.30;101095.00;;;;2077221;28;20245;-55
2021/08/31 00:48:53;;;;;;;3.85;3.60;;;;;22.30;101090.00;;;;2071267;28;20219;-54
2021/08/31 00:49:54;;;;;;;3.83;3.53;;;;;22.30;101100.00;;;;2067495;28;20218;-55
2021/08/31 00:50:54;;;;;;;3.70;3.40;;;;;22.30;101093.00;;;;2063464;28;20230;-55
2021/08/31 00:51:56;;;;;;;4.10;3.80;;;;;22.30;101104.00;;;;2054990;28;20212;-55
2021/08/31 00:52:58;;;;;;;3.70;3.40;;;;;22.30;101099.00;;;;2055260;28;20318;-55
2021/08/31 00:53:58;;;;;;;4.13;3.83;;;;;22.30;101104.00;;;;2063153;28;20221;-55
2021/08/31 00:54:59;;;;;;;4.07;3.77;;;;;22.30;101096.00;;;;2063912;28;20238;-55
2021/08/31 00:55:59;;;;;;;4.17;3.87;;;;;22.30;101103.00;;;;2062412;28;20212;-55
2021/08/31 00:57:00;;;;;;;3.70;3.47;;;;;22.30;101104.00;;;;2054706;28;20200;-55
2021/08/31 00:58:00;;;;;;;4.17;3.63;;;;;22.30;101103.00;;;;2062989;28;20298;-55
2021/08/31 00:59:00;;;;;;;3.90;3.60;;;;;22.30;101099.00;;;;2064504;28;20298;-55
2021/08/31 01:00:01;;;;;;;3.87;3.60;;;;;22.30;101109.00;;;;2071681;28;20206;-55
2021/08/31 01:01:01;;;;;;;3.63;3.43;;;;;22.30;101111.00;;;;2071779;28;20210;-55
2021/08/31 01:02:02;;;;;;;4.20;3.90;;;;;22.30;101108.00;;;;2068886;28;20548;-55
2021/08/31 01:03:02;;;;;;;3.70;3.40;;;;;22.30;101109.00;;;;2063772;28;20265;-55
2021/08/31 01:04:04;;;;;;;3.90;3.60;;;;;22.30;101109.00;;;;2062869;28;20864;-55
2021/08/31 01:05:05;;;;;;;4.47;4.10;;;;;22.30;101109.00;;;;2063664;28;20254;-55
2021/08/31 01:06:05;;;;;;;4.33;4.03;;;;;22.30;101111.00;;;;2069853;28;20217;-55
2021/08/31 01:07:06;;;;;;;4.00;3.70;;;;;22.30;101109.00;;;;2062812;28;20702;-55
2021/08/31 01:08:06;;;;;;;3.70;3.50;;;;;22.30;101112.00;;;;2062770;28;20295;-55
2021/08/31 01:09:08;;;;;;;4.63;3.83;;;;;22.30;101113.00;;;;2062984;28;21341;-55
2021/08/31 01:10:09;;;;;;;4.22;3.92;;;;;22.20;101119.00;;;;2063743;28;20203;-54
2021/08/31 01:11:10;;;;;;;3.85;3.55;;;;;22.30;101115.00;;;;2063691;28;20222;-55
2021/08/31 01:12:10;;;;;;;3.53;3.23;;;;;22.20;101122.00;;;;2058462;28;20691;-55
2021/08/31 01:13:10;;;;;;;4.03;3.73;;;;;22.20;101110.00;;;;2054950;28;20617;-54
2021/08/31 01:14:11;;;;;;;3.40;3.20;;;;;22.20;101102.00;;;;2062765;28;20215;-55
2021/08/31 01:15:12;;;;;;;3.73;3.53;;;;;22.20;101113.00;;;;2046974;28;20224;-55
2021/08/31 01:16:12;;;;;;;4.07;3.78;;;;;22.20;101111.00;;;;2057186;28;20712;-55
2021/08/31 01:17:22;;;;;;;4.07;3.77;;;;;22.20;101120.00;;;;2064918;28;20321;-55
2021/08/31 01:18:22;;;;;;;3.95;3.65;;;;;22.20;101122.00;;;;2062481;28;20288;-55
2021/08/31 01:19:29;;;;;;;4.43;4.13;;;;;22.20;101111.00;;;;2066465;28;20219;-54
2021/08/31 01:20:32;;;;;;;4.25;3.95;;;;;22.30;101122.00;;;;2068991;28;20214;-55
2021/08/31 01:21:32;;;;;;;3.30;3.10;;;;;22.30;101112.00;;;;2063483;28;20219;-55
2021/08/31 01:22:33;;;;;;;3.70;3.40;;;;;22.30;101112.00;;;;2063384;28;20218;-55
2021/08/31 01:23:33;;;;;;;3.33;3.13;;;;;22.20;101115.00;;;;2063468;28;20235;-55
2021/08/31 01:24:34;;;;;;;3.73;3.43;;;;;22.20;101115.00;;;;2063435;28;20222;-55
2021/08/31 01:25:34;;;;;;;3.90;3.60;;;;;22.20;101118.00;;;;2064446;28;20578;-55
2021/08/31 01:26:35;;;;;;;3.73;3.43;;;;;22.30;101115.00;;;;2071304;28;20464;-55
2021/08/31 01:27:35;;;;;;;3.43;3.23;;;;;22.20;101111.00;;;;2071152;28;20256;-54
2021/08/31 01:28:35;;;;;;;4.00;3.70;;;;;22.30;101115.00;;;;2071576;28;20210;-55
2021/08/31 01:29:36;;;;;;;3.90;3.60;;;;;22.30;101112.00;;;;2070580;28;20218;-54
2021/08/31 01:30:36;;;;;;;4.07;3.77;;;;;22.30;101115.00;;;;2068310;28;20627;-54
2021/08/31 01:31:37;;;;;;;3.67;3.40;;;;;22.30;101114.00;;;;2066978;28;20233;-55
2021/08/31 01:32:37;;;;;;;3.67;3.37;;;;;22.30;101110.00;;;;2071513;28;20222;-55
2021/08/31 01:33:37;;;;;;;3.90;3.60;;;;;22.30;101114.00;;;;2071470;28;20616;-55
2021/08/31 01:34:38;;;;;;;3.60;3.37;;;;;22.20;101119.00;;;;2071399;28;20214;-54
2021/08/31 01:35:38;;;;;;;4.50;4.20;;;;;22.30;101117.00;;;;2071374;28;20218;-55
2021/08/31 01:36:39;;;;;;;4.07;3.77;;;;;22.30;101123.00;;;;2068385;28;20214;-55
2021/08/31 01:37:39;;;;;;;4.37;3.97;;;;;22.30;101116.00;;;;2063157;28;20234;-54
2021/08/31 01:38:39;;;;;;;4.30;4.00;;;;;22.30;101118.00;;;;2063197;28;20298;-55
2021/08/31 01:39:40;;;;;;;3.63;3.33;;;;;22.30;101121.00;;;;2062366;28;20703;-55
2021/08/31 01:40:40;;;;;;;3.60;3.30;;;;;22.20;101120.00;;;;2063128;28;20219;-55
2021/08/31 01:41:40;;;;;;;3.87;3.57;;;;;22.30;101125.00;;;;2063474;28;20719;-55
2021/08/31 01:42:41;;;;;;;4.37;3.97;;;;;22.30;101128.00;;;;2063278;28;20635;-55
2021/08/31 01:43:41;;;;;;;3.97;3.67;;;;;22.30;101121.00;;;;2063276;28;20223;-55
2021/08/31 01:44:41;;;;;;;3.80;3.50;;;;;22.30;101121.00;;;;2063361;28;20230;-55
2021/08/31 01:45:46;;;;;;;3.80;3.50;;;;;22.30;101124.00;;;;2063376;28;20215;-55
2021/08/31 01:46:46;;;;;;;4.20;3.90;;;;;22.30;101124.00;;;;2063101;28;20241;-55
2021/08/31 01:47:46;;;;;;;4.13;3.57;;;;;22.30;101126.00;;;;2063254;28;20541;-55
2021/08/31 01:48:47;;;;;;;4.10;3.67;;;;;22.30;101124.00;;;;2062668;28;20215;-55
2021/08/31 01:49:47;;;;;;;4.00;3.70;;;;;22.30;101126.00;;;;2059151;28;20222;-54
2021/08/31 01:50:47;;;;;;;3.90;3.60;;;;;22.30;101130.00;;;;2064896;28;20222;-55
2021/08/31 01:51:48;;;;;;;3.97;3.67;;;;;22.30;101133.00;;;;2063001;28;20222;-55
2021/08/31 01:52:48;;;;;;;3.60;3.40;;;;;22.30;101125.00;;;;2063316;28;20215;-55
2021/08/31 01:53:48;;;;;;;3.87;3.60;;;;;22.30;101134.00;;;;2063365;28;20230;-55
2021/08/31 01:54:49;;;;;;;4.17;3.87;;;;;22.30;101133.00;;;;2056748;28;20313;-55
2021/08/31 01:55:49;;;;;;;4.00;3.70;;;;;22.30;101128.00;;;;2073278;28;20221;-55
2021/08/31 01:56:49;;;;;;;3.90;3.60;;;;;22.30;101140.00;;;;2075673;28;20222;-55
2021/08/31 01:57:50;;;;;;;3.80;3.53;;;;;22.30;101132.00;;;;2071167;28;20292;-55
2021/08/31 01:58:50;;;;;;;3.70;3.40;;;;;22.30;101130.00;;;;2070402;28;20301;-55
2021/08/31 01:59:50;;;;;;;3.87;3.57;;;;;22.30;101131.00;;;;2071118;28;20230;-55
2021/08/31 02:00:51;;;;;;;3.77;3.47;;;;;22.30;101134.00;;;;2070501;28;20919;-55
2021/08/31 02:01:51;;;;;;;4.10;3.80;;;;;22.20;101135.00;;;;2070914;28;20559;-54
2021/08/31 02:02:52;;;;;;;3.90;3.60;;;;;22.20;101133.00;;;;2071235;28;20244;-55
2021/08/31 02:03:52;;;;;;;3.70;3.50;;;;;22.20;101137.00;;;;2071453;28;20284;-55
2021/08/31 02:04:52;;;;;;;4.20;3.90;;;;;22.20;101134.00;;;;2071251;28;20305;-55
2021/08/31 02:05:53;;;;;;;4.20;3.90;;;;;22.30;101137.00;;;;2065360;28;20209;-55
2021/08/31 02:06:53;;;;;;;3.50;3.30;;;;;22.30;101138.00;;;;2078614;28;20214;-55
2021/08/31 02:07:53;;;;;;;3.97;3.67;;;;;22.30;101134.00;;;;2071769;28;20260;-55
2021/08/31 02:08:54;;;;;;;3.87;3.57;;;;;22.30;101139.00;;;;2070476;28;20214;-55
2021/08/31 02:09:54;;;;;;;3.70;3.40;;;;;22.20;101139.00;;;;2071088;28;20222;-55
2021/08/31 02:10:54;;;;;;;4.30;4.00;;;;;22.20;101135.00;;;;2071157;28;20292;-55
2021/08/31 02:11:55;;;;;;;3.77;3.47;;;;;22.20;101138.00;;;;2070957;28;20797;-55
2021/08/31 02:12:55;;;;;;;4.00;3.70;;;;;22.30;101135.00;;;;2071075;28;20218;-55
2021/08/31 02:13:55;;;;;;;3.53;3.30;;;;;22.30;101142.00;;;;2071343;28;20206;-55
2021/08/31 02:14:56;;;;;;;3.70;3.47;;;;;22.30;101134.00;;;;2071234;28;20210;-55
2021/08/31 02:15:57;;;;;;;4.00;3.70;;;;;22.30;101135.00;;;;2071029;28;20210;-55
2021/08/31 02:16:57;;;;;;;4.50;4.20;;;;;22.30;101141.00;;;;2071012;28;20292;-55
2021/08/31 02:17:57;;;;;;;4.30;4.00;;;;;22.30;101136.00;;;;2070882;28;20284;-55
2021/08/31 02:18:58;;;;;;;4.20;3.90;;;;;22.20;101139.00;;;;2067623;28;20230;-55
2021/08/31 02:19:58;;;;;;;3.87;3.57;;;;;22.20;101141.00;;;;2066677;28;20322;-55
2021/08/31 02:20:58;;;;;;;3.87;3.60;;;;;22.20;101143.00;;;;2066588;28;20222;-55
2021/08/31 02:21:59;;;;;;;4.23;3.90;;;;;22.30;101138.00;;;;2062950;28;20222;-55
2021/08/31 02:22:59;;;;;;;3.97;3.67;;;;;22.30;101141.00;;;;2062972;28;20223;-55
2021/08/31 02:23:59;;;;;;;4.00;3.70;;;;;22.30;101135.00;;;;2066798;28;20277;-55
2021/08/31 02:25:00;;;;;;;3.97;3.67;;;;;22.30;101135.00;;;;2070534;28;20210;-55
2021/08/31 02:26:00;;;;;;;3.57;3.33;;;;;22.30;101134.00;;;;2070787;28;20271;-55
2021/08/31 02:27:00;;;;;;;4.40;4.03;;;;;22.30;101143.00;;;;2070036;28;20220;-57
2021/08/31 02:28:01;;;;;;;4.00;3.70;;;;;22.30;101134.00;;;;2070029;28;20210;-57
2021/08/31 02:29:01;;;;;;;3.93;3.63;;;;;22.30;101135.00;;;;2070185;28;20206;-57
2021/08/31 02:30:02;;;;;;;4.00;3.70;;;;;22.30;101132.00;;;;2070895;28;20217;-57
2021/08/31 02:31:03;;;;;;;3.90;3.60;;;;;22.30;101126.00;;;;2070860;28;20646;-55
2021/08/31 02:32:05;;;;;;;3.53;3.23;;;;;22.30;101136.00;;;;2069577;28;20214;-55
2021/08/31 02:33:05;;;;;;;3.95;3.65;;;;;22.20;101140.00;;;;2070860;28;20225;-55
2021/08/31 02:34:05;;;;;;;4.70;4.30;;;;;22.30;101138.00;;;;2071070;28;20214;-56
2021/08/31 02:35:06;;;;;;;4.40;4.00;;;;;22.20;101133.00;;;;2071036;28;20265;-55
2021/08/31 02:36:07;;;;;;;3.97;3.67;;;;;22.20;101142.00;;;;2070738;28;20215;-55
2021/08/31 02:37:07;;;;;;;4.20;3.90;;;;;22.20;101136.00;;;;2070733;28;20220;-55
2021/08/31 02:38:07;;;;;;;4.67;4.27;;;;;22.20;101135.00;;;;2070075;28;20279;-55
2021/08/31 02:39:08;;;;;;;3.80;3.53;;;;;22.30;101129.00;;;;2069946;28;21097;-56
2021/08/31 02:40:09;;;;;;;3.77;3.47;;;;;22.30;101133.00;;;;2070812;28;20217;-54
2021/08/31 02:41:09;;;;;;;4.10;3.80;;;;;22.30;101134.00;;;;2070863;28;20218;-55
2021/08/31 02:42:10;;;;;;;4.03;3.73;;;;;22.30;101135.00;;;;2061738;28;20269;-55
2021/08/31 02:43:10;;;;;;;4.30;4.00;;;;;22.30;101133.00;;;;2063012;28;20199;-55
2021/08/31 02:44:10;;;;;;;4.10;3.80;;;;;22.30;101133.00;;;;2061752;28;20215;-55
2021/08/31 02:45:11;;;;;;;3.73;3.43;;;;;22.20;101142.00;;;;2062332;28;20265;-55
2021/08/31 02:46:11;;;;;;;4.20;3.90;;;;;22.20;101141.00;;;;2062260;28;20238;-55
2021/08/31 02:47:12;;;;;;;5.10;3.67;;;;;22.20;101125.00;;;;2068572;28;20254;-54
2021/08/31 02:48:12;;;;;;;3.93;3.63;;;;;22.30;101137.00;;;;2069916;28;20210;-55
2021/08/31 02:49:12;;;;;;;4.23;3.93;;;;;22.30;101131.00;;;;2066685;28;20217;-55
2021/08/31 02:50:13;;;;;;;3.80;3.60;;;;;22.30;101125.00;;;;2063854;28;20629;-55
2021/08/31 02:51:13;;;;;;;4.07;3.77;;;;;22.30;101132.00;;;;2061910;28;20207;-55
2021/08/31 02:52:13;;;;;;;4.10;3.80;;;;;22.30;101124.00;;;;2062198;28;20346;-55
2021/08/31 02:53:14;;;;;;;3.50;3.30;;;;;22.20;101130.00;;;;2062113;28;20215;-55
2021/08/31 02:54:14;;;;;;;4.23;3.93;;;;;22.20;101124.00;;;;2062173;28;20215;-55
2021/08/31 02:55:14;;;;;;;3.90;3.60;;;;;22.30;101126.00;;;;2062128;28;20322;-55
2021/08/31 02:56:15;;;;;;;3.90;3.63;;;;;22.30;101137.00;;;;2062280;28;20202;-55
2021/08/31 02:57:15;;;;;;;4.30;3.67;;;;;22.30;101129.00;;;;2062012;28;20691;-55
2021/08/31 02:58:15;;;;;;;4.10;3.80;;;;;22.20;101129.00;;;;2062009;28;20298;-54
2021/08/31 02:59:16;;;;;;;4.43;4.13;;;;;22.20;101125.00;;;;2061290;28;20207;-55
2021/08/31 03:00:19;;;;;;;3.90;3.60;;;;;22.30;101126.00;;;;2062161;28;20207;-54
2021/08/31 03:02:29;;;;;;;4.20;3.80;;;;;22.20;101124.00;;;;2062127;28;20234;-54
2021/08/31 03:03:29;;;;;;;3.93;3.63;;;;;22.20;101127.00;;;;2062521;28;20214;-55
2021/08/31 03:04:29;;;;;;;4.20;3.90;;;;;22.20;101137.00;;;;2062331;28;20250;-55
2021/08/31 03:05:30;;;;;;;3.80;3.50;;;;;22.20;101141.00;;;;2062115;28;20218;-55
2021/08/31 03:06:30;;;;;;;4.00;3.70;;;;;22.20;101137.00;;;;2061649;28;20678;-54
2021/08/31 03:07:31;;;;;;;4.17;3.77;;;;;22.20;101130.00;;;;2062253;28;20583;-55
2021/08/31 03:08:31;;;;;;;4.30;3.93;;;;;22.20;101137.00;;;;2067586;28;20648;-55
2021/08/31 03:09:31;;;;;;;4.37;4.07;;;;;22.20;101129.00;;;;2069035;28;20218;-55
2021/08/31 03:10:32;;;;;;;4.40;4.00;;;;;22.20;101136.00;;;;2070345;28;20686;-55
2021/08/31 03:11:33;;;;;;;4.63;4.33;;;;;22.20;101139.00;;;;2070311;28;20293;-55
2021/08/31 03:12:34;;;;;;;4.00;3.70;;;;;22.20;101136.00;;;;2068209;28;20602;-55
2021/08/31 03:13:34;;;;;;;4.20;3.90;;;;;22.20;101134.00;;;;2062287;28;20215;-55
2021/08/31 03:14:34;;;;;;;4.23;3.93;;;;;22.20;101140.00;;;;2067225;28;20594;-54
2021/08/31 03:15:35;;;;;;;4.10;3.80;;;;;22.20;101134.00;;;;2070085;28;20225;-55
2021/08/31 03:16:35;;;;;;;3.80;3.53;;;;;22.20;101143.00;;;;2070042;28;20223;-55
2021/08/31 03:17:35;;;;;;;4.20;3.90;;;;;22.20;101137.00;;;;2069922;28;20225;-55
2021/08/31 03:18:36;;;;;;;3.90;3.60;;;;;22.20;101139.00;;;;2068925;28;20321;-55
2021/08/31 03:19:36;;;;;;;4.00;3.70;;;;;22.20;101134.00;;;;2066549;28;20281;-55
2021/08/31 03:20:36;;;;;;;3.53;3.33;;;;;22.20;101139.00;;;;2061629;28;20286;-54
2021/08/31 03:21:37;;;;;;;4.03;3.73;;;;;22.20;101146.00;;;;2061805;28;20211;-54
2021/08/31 03:22:37;;;;;;;3.70;3.40;;;;;22.20;101142.00;;;;2060980;28;20281;-55
2021/08/31 03:23:38;;;;;;;4.30;4.00;;;;;22.30;101148.00;;;;2061540;28;20222;-55
2021/08/31 03:24:38;;;;;;;4.20;3.90;;;;;22.20;101150.00;;;;2061972;28;20316;-55
2021/08/31 03:25:38;;;;;;;4.20;3.90;;;;;22.20;101152.00;;;;2061647;28;20765;-55
2021/08/31 03:26:39;;;;;;;4.10;3.80;;;;;22.20;101147.00;;;;2060890;28;20306;-55
2021/08/31 03:27:39;;;;;;;4.33;4.03;;;;;22.20;101155.00;;;;2060545;28;20214;-55
2021/08/31 03:28:39;;;;;;;4.17;3.87;;;;;22.20;101151.00;;;;2068664;28;20229;-55
2021/08/31 03:29:40;;;;;;;4.03;3.73;;;;;22.20;101153.00;;;;2069409;28;20218;-55
2021/08/31 03:30:40;;;;;;;4.10;3.80;;;;;22.20;101151.00;;;;2069751;28;20260;-55
2021/08/31 03:31:40;;;;;;;4.23;3.93;;;;;22.20;101165.00;;;;2069621;28;20225;-58
2021/08/31 03:32:42;;;;;;;4.07;3.77;;;;;22.20;101155.00;;;;2065109;28;20243;-56
2021/08/31 03:33:43;;;;;;;4.10;3.80;;;;;22.20;101155.00;;;;2061891;28;20222;-55
2021/08/31 03:34:43;;;;;;;4.30;4.00;;;;;22.20;101152.00;;;;2062146;28;20214;-55
2021/08/31 03:35:43;;;;;;;4.50;4.10;;;;;22.20;101155.00;;;;2064714;28;20297;-55
2021/08/31 03:36:44;;;;;;;4.10;3.80;;;;;22.20;101149.00;;;;2069851;28;20214;-55
2021/08/31 03:37:45;;;;;;;4.20;3.90;;;;;22.20;101150.00;;;;2062401;28;20574;-55
2021/08/31 03:38:45;;;;;;;4.10;3.80;;;;;22.20;101180.00;;;;2060520;28;20230;-55
2021/08/31 03:39:45;;;;;;;4.47;4.17;;;;;22.20;101159.00;;;;2061177;28;20318;-55
2021/08/31 03:40:46;;;;;;;4.07;3.77;;;;;22.20;101149.00;;;;2062878;28;20714;-56
2021/08/31 03:41:46;;;;;;;4.27;3.97;;;;;22.20;101155.00;;;;2069905;28;20579;-54
2021/08/31 03:42:47;;;;;;;4.10;3.80;;;;;22.20;101156.00;;;;2063898;28;20289;-55
2021/08/31 03:43:47;;;;;;;4.23;3.93;;;;;22.20;101150.00;;;;2062252;28;20227;-55
2021/08/31 03:44:48;;;;;;;4.40;4.10;;;;;22.20;101152.00;;;;2061772;28;20246;-55
2021/08/31 03:45:48;;;;;;;4.50;4.20;;;;;22.20;101151.00;;;;2062033;28;20325;-56
2021/08/31 03:46:48;;;;;;;4.33;4.03;;;;;22.20;101156.00;;;;2061804;28;20215;-55
2021/08/31 03:47:49;;;;;;;4.37;3.97;;;;;22.20;101159.00;;;;2062030;28;20219;-55
2021/08/31 03:48:49;;;;;;;4.03;3.73;;;;;22.20;101159.00;;;;2061828;28;20219;-55
2021/08/31 03:49:49;;;;;;;4.17;3.87;;;;;22.20;101158.00;;;;2066297;28;20760;-55
2021/08/31 03:50:50;;;;;;;4.40;4.10;;;;;22.20;101159.00;;;;2053330;28;20203;-55
2021/08/31 03:51:50;;;;;;;4.37;4.07;;;;;22.20;101167.00;;;;2071194;28;20218;-55
2021/08/31 03:52:50;;;;;;;4.10;3.80;;;;;22.30;101167.00;;;;2070547;28;20218;-55
2021/08/31 03:53:51;;;;;;;4.37;4.07;;;;;22.30;101167.00;;;;2061885;28;20278;-55
2021/08/31 03:54:51;;;;;;;4.13;3.83;;;;;22.20;101164.00;;;;2061732;28;20317;-55
2021/08/31 03:55:51;;;;;;;4.37;3.97;;;;;22.20;101161.00;;;;2061762;28;20293;-54
2021/08/31 03:56:52;;;;;;;4.70;4.30;;;;;22.20;101167.00;;;;2062215;28;20225;-55
2021/08/31 03:57:52;;;;;;;4.30;4.00;;;;;22.30;101170.00;;;;2069394;28;20225;-55
2021/08/31 03:58:52;;;;;;;4.27;3.97;;;;;22.20;101170.00;;;;2069204;28;20222;-55
2021/08/31 03:59:53;;;;;;;4.33;4.03;;;;;22.20;101162.00;;;;2070007;28;20243;-55
2021/08/31 04:00:53;;;;;;;4.00;3.70;;;;;22.30;101167.00;;;;2070337;28;20325;-54
2021/08/31 04:01:53;;;;;;;3.90;3.60;;;;;22.30;101161.00;;;;2070642;28;20221;-55
2021/08/31 04:02:54;;;;;;;4.17;3.87;;;;;22.20;101170.00;;;;2070627;28;20221;-54
2021/08/31 04:03:54;;;;;;;4.00;3.70;;;;;22.20;101162.00;;;;2070652;28;20218;-55
2021/08/31 04:04:54;;;;;;;4.00;3.70;;;;;22.20;101169.00;;;;2070812;28;20254;-55
2021/08/31 04:05:55;;;;;;;4.20;3.90;;;;;22.20;101172.00;;;;2070402;28;20356;-55
2021/08/31 04:06:57;;;;;;;4.37;4.00;;;;;22.20;101173.00;;;;2069620;28;20272;-55
2021/08/31 04:07:57;;;;;;;4.05;3.75;;;;;22.20;101163.00;;;;2070569;28;20218;-55
2021/08/31 04:08:58;;;;;;;4.50;4.20;;;;;22.20;101165.00;;;;2068757;28;20321;-55
2021/08/31 04:09:58;;;;;;;4.63;4.23;;;;;22.20;101170.00;;;;2069762;28;20218;-54
2021/08/31 04:10:58;;;;;;;4.00;3.70;;;;;22.20;101165.00;;;;2070247;28;20214;-55
2021/08/31 04:11:59;;;;;;;4.07;3.77;;;;;22.20;101164.00;;;;2070577;28;20214;-55
2021/08/31 04:12:59;;;;;;;4.50;4.20;;;;;22.20;101170.00;;;;2070239;28;20221;-55
2021/08/31 04:13:59;;;;;;;4.07;3.77;;;;;22.20;101174.00;;;;2070297;28;20232;-55
2021/08/31 04:15:00;;;;;;;4.53;4.20;;;;;22.20;101174.00;;;;2070563;28;20270;-55
2021/08/31 04:16:00;;;;;;;4.07;3.77;;;;;22.20;101164.00;;;;2069992;28;20214;-55
2021/08/31 04:17:01;;;;;;;3.93;3.63;;;;;22.20;101176.00;;;;2070070;28;20207;-55
2021/08/31 04:18:01;;;;;;;4.60;4.20;;;;;22.20;101176.00;;;;2069778;28;20226;-55
2021/08/31 04:19:01;;;;;;;4.80;4.40;;;;;22.20;101171.00;;;;2066624;28;20683;-55
2021/08/31 04:20:03;;;;;;;4.07;3.77;;;;;22.20;101177.00;;;;2065523;28;20211;-54
2021/08/31 04:21:03;;;;;;;4.25;3.95;;;;;22.20;101173.00;;;;2062150;28;20203;-56
2021/08/31 04:22:04;;;;;;;4.53;4.13;;;;;22.20;101175.00;;;;2062199;28;20206;-54
2021/08/31 04:23:04;;;;;;;4.60;4.30;;;;;22.20;101173.00;;;;2062343;28;20218;-54
2021/08/31 04:24:04;;;;;;;4.47;4.17;;;;;22.20;101185.00;;;;2062593;28;20211;-55
2021/08/31 04:25:05;;;;;;;4.43;4.03;;;;;22.20;101180.00;;;;2062951;28;20214;-55
2021/08/31 04:26:06;;;;;;;4.47;4.17;;;;;22.20;101172.00;;;;2063213;28;20239;-55
2021/08/31 04:27:06;;;;;;;4.30;4.00;;;;;22.20;101181.00;;;;2063734;28;20468;-55
2021/08/31 04:28:06;;;;;;;4.30;4.00;;;;;22.20;101189.00;;;;2063538;28;20218;-55
2021/08/31 04:29:07;;;;;;;4.50;4.20;;;;;22.20;101191.00;;;;2062960;28;20261;-55
2021/08/31 04:30:07;;;;;;;4.40;4.10;;;;;22.20;101184.00;;;;2063896;28;20234;-55
2021/08/31 04:31:08;;;;;;;4.20;3.90;;;;;22.20;101184.00;;;;2063726;28;20250;-55
2021/08/31 04:32:08;;;;;;;4.43;4.13;;;;;22.20;101186.00;;;;2063750;28;20211;-55
2021/08/31 04:33:08;;;;;;;4.03;3.73;;;;;22.20;101185.00;;;;2063880;28;20730;-54
2021/08/31 04:34:09;;;;;;;5.23;4.83;;;;;22.20;101194.00;;;;2063615;28;20313;-54
2021/08/31 04:35:09;;;;;;;4.67;4.27;;;;;22.20;101170.00;;;;2063830;28;20215;-55
2021/08/31 04:36:10;;;;;;;4.30;4.00;;;;;22.20;101185.00;;;;2063893;28;20950;-55
2021/08/31 04:37:10;;;;;;;4.43;4.03;;;;;22.20;101190.00;;;;2063804;28;21715;-55
2021/08/31 04:38:10;;;;;;;4.50;4.13;;;;;22.20;101193.00;;;;2063754;28;20313;-55
2021/08/31 04:39:11;;;;;;;4.50;4.20;;;;;22.20;101191.00;;;;2062557;28;20231;-55
2021/08/31 04:40:12;;;;;;;4.67;4.30;;;;;22.20;101195.00;;;;2058077;28;20322;-55
2021/08/31 04:41:12;;;;;;;4.47;4.17;;;;;22.20;101189.00;;;;2063139;28;20227;-55
2021/08/31 04:42:12;;;;;;;4.37;4.07;;;;;22.20;101191.00;;;;2063662;28;20450;-55
2021/08/31 04:43:13;;;;;;;4.47;4.10;;;;;22.20;101189.00;;;;2063201;28;20219;-55
2021/08/31 04:44:13;;;;;;;4.77;4.47;;;;;22.20;101192.00;;;;2063931;28;20219;-55
2021/08/31 04:45:13;;;;;;;5.10;4.60;;;;;22.20;101184.00;;;;2063648;28;20227;-55
2021/08/31 04:46:14;;;;;;;5.13;4.73;;;;;22.20;101200.00;;;;2063656;28;20257;-55
2021/08/31 04:47:15;;;;;;;5.20;4.80;;;;;22.20;101203.00;;;;2063861;28;20219;-55
2021/08/31 04:48:15;;;;;;;4.35;4.05;;;;;22.20;101198.00;;;;2063627;28;20655;-55
2021/08/31 04:49:16;;;;;;;3.90;3.60;;;;;22.20;101199.00;;;;2062574;28;20218;-56
2021/08/31 04:50:16;;;;;;;4.80;4.40;;;;;22.20;101196.00;;;;2063572;28;20549;-55
2021/08/31 04:51:16;;;;;;;4.83;4.53;;;;;22.00;101198.00;;;;2062817;28;20575;-55
2021/08/31 04:52:17;;;;;;;5.00;4.60;;;;;22.20;101197.00;;;;2063054;28;20219;-55
2021/08/31 04:53:20;;;;;;;4.33;4.00;;;;;22.20;101199.00;;;;2063780;28;20219;-55
2021/08/31 04:54:20;;;;;;;4.78;4.43;;;;;22.20;101205.00;;;;2063544;28;20215;-55
2021/08/31 04:55:21;;;;;;;4.73;4.33;;;;;22.00;101206.00;;;;2062944;28;20211;-55
2021/08/31 04:56:21;;;;;;;4.57;4.17;;;;;22.20;101210.00;;;;2062890;28;20560;-55
2021/08/31 04:57:21;;;;;;;5.00;4.60;;;;;22.20;101214.00;;;;2062840;28;20215;-55
2021/08/31 04:58:22;;;;;;;4.53;4.23;;;;;22.20;101212.00;;;;2062585;28;20703;-55
2021/08/31 04:59:22;;;;;;;5.00;4.60;;;;;22.20;101221.00;;;;2061499;28;20223;-55
2021/08/31 05:00:23;;;;;;;4.43;4.13;;;;;22.20;101213.00;;;;2062885;28;20218;-56